Aviation Digital Data Service (ADDS)

Output produced by METARs form (1442 UTC 23 January 2019)
found at http://www.aviationweather.gov/metar/data/
 
METAR text: WBKK 231430Z VRB02KT 6000 -RA FEW014 SCT040 OVC270 25/24 Q1011 TEMPO 5000 RA
Conditions at: WBKK (KOTA KINABALU IN, MY) observed 1430 UTC 23 January 2019
Temperature: 25.0°C (77°F)
Dewpoint: 24.0°C (75°F) [RH = 94%]
Pressure (altimeter): 29.85 inches Hg (1011.0 mb)
Winds: variable direction winds at 2 MPH (2 knots; 1.0 m/s)
Visibility: 4 miles ( 6 km)
Ceiling: 27000 feet AGL
Clouds: few clouds at 1400 feet AGL
scattered clouds at 4000 feet AGL
overcast cloud deck at 27000 feet AGL
Weather: -RA  (light rain)

METAR text: WBKK 231400Z 00000KT 9999 FEW014 SCT040 OVC270 25/24 Q1011 NOSIG
Conditions at: WBKK (KOTA KINABALU IN, MY) observed 1400 UTC 23 January 2019
Temperature: 25.0°C (77°F)
Dewpoint: 24.0°C (75°F) [RH = 94%]
Pressure (altimeter): 29.85 inches Hg (1011.0 mb)
Winds: calm
Visibility: 6 or more miles (10+ km)
Ceiling: 27000 feet AGL
Clouds: few clouds at 1400 feet AGL
scattered clouds at 4000 feet AGL
overcast cloud deck at 27000 feet AGL
Weather: no significant weather observed at this time

METAR text: WBKK 231330Z 08004KT 050V120 9999 FEW013 SCT035 OVC270 25/24 Q1011 NOSIG
Conditions at: WBKK (KOTA KINABALU IN, MY) observed 1330 UTC 23 January 2019
Temperature: 25.0°C (77°F)
Dewpoint: 24.0°C (75°F) [RH = 94%]
Pressure (altimeter): 29.85 inches Hg (1011.0 mb)
Winds: from the E (80 degrees) at 5 MPH (4 knots; 2.1 m/s)
Visibility: 6 or more miles (10+ km)
Ceiling: 27000 feet AGL
Clouds: few clouds at 1300 feet AGL
scattered clouds at 3500 feet AGL
overcast cloud deck at 27000 feet AGL
Weather: no significant weather observed at this time

METAR text: WBKK 231300Z 09004KT 070V140 9999 FEW013 SCT035 OVC270 25/24 Q1011 NOSIG
Conditions at: WBKK (KOTA KINABALU IN, MY) observed 1300 UTC 23 January 2019
Temperature: 25.0°C (77°F)
Dewpoint: 24.0°C (75°F) [RH = 94%]
Pressure (altimeter): 29.85 inches Hg (1011.0 mb)
Winds: from the E (90 degrees) at 5 MPH (4 knots; 2.1 m/s)
Visibility: 6 or more miles (10+ km)
Ceiling: 27000 feet AGL
Clouds: few clouds at 1300 feet AGL
scattered clouds at 3500 feet AGL
overcast cloud deck at 27000 feet AGL
Weather: no significant weather observed at this time

METAR text: WBKK 231230Z 11005KT 080V140 9000 -RA FEW013 SCT035 OVC270 25/24 Q1010 NOSIG
Conditions at: WBKK (KOTA KINABALU IN, MY) observed 1230 UTC 23 January 2019
Temperature: 25.0°C (77°F)
Dewpoint: 24.0°C (75°F) [RH = 94%]
Pressure (altimeter): 29.82 inches Hg (1010.0 mb)
Winds: from the ESE (110 degrees) at 6 MPH (5 knots; 2.6 m/s)
Visibility: 6 miles ( 9 km)
Ceiling: 27000 feet AGL
Clouds: few clouds at 1300 feet AGL
scattered clouds at 3500 feet AGL
overcast cloud deck at 27000 feet AGL
Weather: -RA  (light rain)

METAR text: WBKK 231200Z 11005KT 9000 -RA FEW013 SCT035 OVC270 25/24 Q1010 NOSIG
Conditions at: WBKK (KOTA KINABALU IN, MY) observed 1200 UTC 23 January 2019
Temperature: 25.0°C (77°F)
Dewpoint: 24.0°C (75°F) [RH = 94%]
Pressure (altimeter): 29.82 inches Hg (1010.0 mb)
Winds: from the ESE (110 degrees) at 6 MPH (5 knots; 2.6 m/s)
Visibility: 6 miles ( 9 km)
Ceiling: 27000 feet AGL
Clouds: few clouds at 1300 feet AGL
scattered clouds at 3500 feet AGL
overcast cloud deck at 27000 feet AGL
Weather: -RA  (light rain)

METAR text: WBKK 231130Z 10006KT 070V130 8000 RA FEW014 SCT035 OVC270 25/24 Q1010 NOSIG
Conditions at: WBKK (KOTA KINABALU IN, MY) observed 1130 UTC 23 January 2019
Temperature: 25.0°C (77°F)
Dewpoint: 24.0°C (75°F) [RH = 94%]
Pressure (altimeter): 29.82 inches Hg (1010.0 mb)
Winds: from the E (100 degrees) at 7 MPH (6 knots; 3.1 m/s)
Visibility: 5 miles ( 8 km)
Ceiling: 27000 feet AGL
Clouds: few clouds at 1400 feet AGL
scattered clouds at 3500 feet AGL
overcast cloud deck at 27000 feet AGL
Weather: RA  (moderate rain)

METAR text: WBKK 231100Z 09007KT 060V120 8000 RA FEW014 SCT130 OVC260 25/24 Q1010 NOSIG
Conditions at: WBKK (KOTA KINABALU IN, MY) observed 1100 UTC 23 January 2019
Temperature: 25.0°C (77°F)
Dewpoint: 24.0°C (75°F) [RH = 94%]
Pressure (altimeter): 29.82 inches Hg (1010.0 mb)
Winds: from the E (90 degrees) at 8 MPH (7 knots; 3.6 m/s)
Visibility: 5 miles ( 8 km)
Ceiling: 26000 feet AGL
Clouds: few clouds at 1400 feet AGL
scattered clouds at 13000 feet AGL
overcast cloud deck at 26000 feet AGL
Weather: RA  (moderate rain)

METAR text: WBKK 231030Z 08004KT 050V110 8000 +RA FEW014 SCT130 OVC260 25/25 Q1010 NOSIG
Conditions at: WBKK (KOTA KINABALU IN, MY) observed 1030 UTC 23 January 2019
Temperature: 25.0°C (77°F)
Dewpoint: 25.0°C (77°F) [RH = 100%]
Pressure (altimeter): 29.82 inches Hg (1010.0 mb)
Winds: from the E (80 degrees) at 5 MPH (4 knots; 2.1 m/s)
Visibility: 5 miles ( 8 km)
Ceiling: 26000 feet AGL
Clouds: few clouds at 1400 feet AGL
scattered clouds at 13000 feet AGL
overcast cloud deck at 26000 feet AGL
Weather: +RA  (heavy rain)

METAR text: WBKK 231000Z 07010KT 040V110 4000 +RA FEW014 SCT130 OVC260 25/24 Q1010 TEMPO 3000 +RA
Conditions at: WBKK (KOTA KINABALU IN, MY) observed 1000 UTC 23 January 2019
Temperature: 25.0°C (77°F)
Dewpoint: 24.0°C (75°F) [RH = 94%]
Pressure (altimeter): 29.82 inches Hg (1010.0 mb)
Winds: from the ENE (70 degrees) at 12 MPH (10 knots; 5.1 m/s)
Visibility: 2.49 miles (4.01 km)
Ceiling: 26000 feet AGL
Clouds: few clouds at 1400 feet AGL
scattered clouds at 13000 feet AGL
overcast cloud deck at 26000 feet AGL
Weather: +RA  (heavy rain)

METAR text: WBKK 230930Z 07007KT 030V110 4000 +RA FEW014 SCT130 OVC260 26/25 Q1009 TEMPO 3000 +RA
Conditions at: WBKK (KOTA KINABALU IN, MY) observed 0930 UTC 23 January 2019
Temperature: 26.0°C (79°F)
Dewpoint: 25.0°C (77°F) [RH = 94%]
Pressure (altimeter): 29.79 inches Hg (1009.0 mb)
Winds: from the ENE (70 degrees) at 8 MPH (7 knots; 3.6 m/s)
Visibility: 2.49 miles (4.01 km)
Ceiling: 26000 feet AGL
Clouds: few clouds at 1400 feet AGL
scattered clouds at 13000 feet AGL
overcast cloud deck at 26000 feet AGL
Weather: +RA  (heavy rain)

METAR text: WBKK 230900Z 03005KT 320V080 9999 FEW014 SCT130 OVC260 27/25 Q1009 TEMPO 8000 -RA
Conditions at: WBKK (KOTA KINABALU IN, MY) observed 0900 UTC 23 January 2019
Temperature: 27.0°C (81°F)
Dewpoint: 25.0°C (77°F) [RH = 89%]
Pressure (altimeter): 29.79 inches Hg (1009.0 mb)
Winds: from the NNE (30 degrees) at 6 MPH (5 knots; 2.6 m/s)
Visibility: 6 or more miles (10+ km)
Ceiling: 26000 feet AGL
Clouds: few clouds at 1400 feet AGL
scattered clouds at 13000 feet AGL
overcast cloud deck at 26000 feet AGL
Weather: no significant weather observed at this time

METAR text: WBKK 230830Z 01005KT 300V070 9999 FEW014 SCT130 OVC260 28/25 Q1009 NOSIG
Conditions at: WBKK (KOTA KINABALU IN, MY) observed 0830 UTC 23 January 2019
Temperature: 28.0°C (82°F)
Dewpoint: 25.0°C (77°F) [RH = 84%]
Pressure (altimeter): 29.79 inches Hg (1009.0 mb)
Winds: from the N (10 degrees) at 6 MPH (5 knots; 2.6 m/s)
Visibility: 6 or more miles (10+ km)
Ceiling: 26000 feet AGL
Clouds: few clouds at 1400 feet AGL
scattered clouds at 13000 feet AGL
overcast cloud deck at 26000 feet AGL
Weather: no significant weather observed at this time

METAR text: WBKK 230800Z 36005KT 260V070 9999 FEW014 SCT130 OVC260 28/25 Q1008 NOSIG
Conditions at: WBKK (KOTA KINABALU IN, MY) observed 0800 UTC 23 January 2019
Temperature: 28.0°C (82°F)
Dewpoint: 25.0°C (77°F) [RH = 84%]
Pressure (altimeter): 29.76 inches Hg (1008.0 mb)
Winds: from the N (360 degrees) at 6 MPH (5 knots; 2.6 m/s)
Visibility: 6 or more miles (10+ km)
Ceiling: 26000 feet AGL
Clouds: few clouds at 1400 feet AGL
scattered clouds at 13000 feet AGL
overcast cloud deck at 26000 feet AGL
Weather: no significant weather observed at this time

METAR text: WBKK 230730Z 36004KT 280V070 9999 FEW014 SCT130 OVC260 28/25 Q1009 NOSIG
Conditions at: WBKK (KOTA KINABALU IN, MY) observed 0730 UTC 23 January 2019
Temperature: 28.0°C (82°F)
Dewpoint: 25.0°C (77°F) [RH = 84%]
Pressure (altimeter): 29.79 inches Hg (1009.0 mb)
Winds: from the N (360 degrees) at 5 MPH (4 knots; 2.1 m/s)
Visibility: 6 or more miles (10+ km)
Ceiling: 26000 feet AGL
Clouds: few clouds at 1400 feet AGL
scattered clouds at 13000 feet AGL
overcast cloud deck at 26000 feet AGL
Weather: no significant weather observed at this time

METAR text: WBKK 230700Z 01005KT 280V070 9999 FEW014 SCT130 OVC260 28/25 Q1009 NOSIG
Conditions at: WBKK (KOTA KINABALU IN, MY) observed 0700 UTC 23 January 2019
Temperature: 28.0°C (82°F)
Dewpoint: 25.0°C (77°F) [RH = 84%]
Pressure (altimeter): 29.79 inches Hg (1009.0 mb)
Winds: from the N (10 degrees) at 6 MPH (5 knots; 2.6 m/s)
Visibility: 6 or more miles (10+ km)
Ceiling: 26000 feet AGL
Clouds: few clouds at 1400 feet AGL
scattered clouds at 13000 feet AGL
overcast cloud deck at 26000 feet AGL
Weather: no significant weather observed at this time

METAR text: WBKK 230630Z 01005KT 320V070 9999 FEW014 SCT130 BKN260 27/24 Q1009 NOSIG
Conditions at: WBKK (KOTA KINABALU IN, MY) observed 0630 UTC 23 January 2019
Temperature: 27.0°C (81°F)
Dewpoint: 24.0°C (75°F) [RH = 84%]
Pressure (altimeter): 29.79 inches Hg (1009.0 mb)
Winds: from the N (10 degrees) at 6 MPH (5 knots; 2.6 m/s)
Visibility: 6 or more miles (10+ km)
Ceiling: 26000 feet AGL
Clouds: few clouds at 1400 feet AGL
scattered clouds at 13000 feet AGL
broken clouds at 26000 feet AGL
Weather: no significant weather observed at this time

METAR text: WBKK 230600Z 02006KT 300V070 9999 FEW014 SCT130 BKN260 28/25 Q1010 NOSIG
Conditions at: WBKK (KOTA KINABALU IN, MY) observed 0600 UTC 23 January 2019
Temperature: 28.0°C (82°F)
Dewpoint: 25.0°C (77°F) [RH = 84%]
Pressure (altimeter): 29.82 inches Hg (1010.0 mb)
Winds: from the NNE (20 degrees) at 7 MPH (6 knots; 3.1 m/s)
Visibility: 6 or more miles (10+ km)
Ceiling: 26000 feet AGL
Clouds: few clouds at 1400 feet AGL
scattered clouds at 13000 feet AGL
broken clouds at 26000 feet AGL
Weather: no significant weather observed at this time

METAR text: WBKK 230530Z 01006KT 300V070 9999 FEW014 SCT130 BKN260 28/24 Q1010 NOSIG
Conditions at: WBKK (KOTA KINABALU IN, MY) observed 0530 UTC 23 January 2019
Temperature: 28.0°C (82°F)
Dewpoint: 24.0°C (75°F) [RH = 79%]
Pressure (altimeter): 29.82 inches Hg (1010.0 mb)
Winds: from the N (10 degrees) at 7 MPH (6 knots; 3.1 m/s)
Visibility: 6 or more miles (10+ km)
Ceiling: 26000 feet AGL
Clouds: few clouds at 1400 feet AGL
scattered clouds at 13000 feet AGL
broken clouds at 26000 feet AGL
Weather: no significant weather observed at this time

METAR text: WBKK 230500Z 34004KT 250V060 9999 FEW014 SCT130 BKN260 28/25 Q1011 NOSIG
Conditions at: WBKK (KOTA KINABALU IN, MY) observed 0500 UTC 23 January 2019
Temperature: 28.0°C (82°F)
Dewpoint: 25.0°C (77°F) [RH = 84%]
Pressure (altimeter): 29.85 inches Hg (1011.0 mb)
Winds: from the NNW (340 degrees) at 5 MPH (4 knots; 2.1 m/s)
Visibility: 6 or more miles (10+ km)
Ceiling: 26000 feet AGL
Clouds: few clouds at 1400 feet AGL
scattered clouds at 13000 feet AGL
broken clouds at 26000 feet AGL
Weather: no significant weather observed at this time

METAR text: WBKK 230430Z 36004KT 290V070 9999 FEW014 SCT130 BKN260 27/25 Q1011 NOSIG
Conditions at: WBKK (KOTA KINABALU IN, MY) observed 0430 UTC 23 January 2019
Temperature: 27.0°C (81°F)
Dewpoint: 25.0°C (77°F) [RH = 89%]
Pressure (altimeter): 29.85 inches Hg (1011.0 mb)
Winds: from the N (360 degrees) at 5 MPH (4 knots; 2.1 m/s)
Visibility: 6 or more miles (10+ km)
Ceiling: 26000 feet AGL
Clouds: few clouds at 1400 feet AGL
scattered clouds at 13000 feet AGL
broken clouds at 26000 feet AGL
Weather: no significant weather observed at this time

METAR text: WBKK 230400Z 34004KT 250V050 9999 FEW014 SCT130 BKN260 27/25 Q1011 NOSIG
Conditions at: WBKK (KOTA KINABALU IN, MY) observed 0400 UTC 23 January 2019
Temperature: 27.0°C (81°F)
Dewpoint: 25.0°C (77°F) [RH = 89%]
Pressure (altimeter): 29.85 inches Hg (1011.0 mb)
Winds: from the NNW (340 degrees) at 5 MPH (4 knots; 2.1 m/s)
Visibility: 6 or more miles (10+ km)
Ceiling: 26000 feet AGL
Clouds: few clouds at 1400 feet AGL
scattered clouds at 13000 feet AGL
broken clouds at 26000 feet AGL
Weather: no significant weather observed at this time

METAR text: WBKK 230330Z 34005KT 240V030 9999 FEW014 SCT140 BKN260 27/25 Q1012 NOSIG
Conditions at: WBKK (KOTA KINABALU IN, MY) observed 0330 UTC 23 January 2019
Temperature: 27.0°C (81°F)
Dewpoint: 25.0°C (77°F) [RH = 89%]
Pressure (altimeter): 29.88 inches Hg (1012.0 mb)
Winds: from the NNW (340 degrees) at 6 MPH (5 knots; 2.6 m/s)
Visibility: 6 or more miles (10+ km)
Ceiling: 26000 feet AGL
Clouds: few clouds at 1400 feet AGL
scattered clouds at 14000 feet AGL
broken clouds at 26000 feet AGL
Weather: no significant weather observed at this time

METAR text: WBKK 230300Z 30003KT 250V360 9999 FEW014 SCT130 BKN260 27/25 Q1012 NOSIG
Conditions at: WBKK (KOTA KINABALU IN, MY) observed 0300 UTC 23 January 2019
Temperature: 27.0°C (81°F)
Dewpoint: 25.0°C (77°F) [RH = 89%]
Pressure (altimeter): 29.88 inches Hg (1012.0 mb)
Winds: from the WNW (300 degrees) at 3 MPH (3 knots; 1.5 m/s)
Visibility: 6 or more miles (10+ km)
Ceiling: 26000 feet AGL
Clouds: few clouds at 1400 feet AGL
scattered clouds at 13000 feet AGL
broken clouds at 26000 feet AGL
Weather: no significant weather observed at this time

METAR text: WBKK 230230Z 00000KT 9999 FEW013 SCT130 BKN260 27/24 Q1012 NOSIG
Conditions at: WBKK (KOTA KINABALU IN, MY) observed 0230 UTC 23 January 2019
Temperature: 27.0°C (81°F)
Dewpoint: 24.0°C (75°F) [RH = 84%]
Pressure (altimeter): 29.88 inches Hg (1012.0 mb)
Winds: calm
Visibility: 6 or more miles (10+ km)
Ceiling: 26000 feet AGL
Clouds: few clouds at 1300 feet AGL
scattered clouds at 13000 feet AGL
broken clouds at 26000 feet AGL
Weather: no significant weather observed at this time

METAR text: WBKK 230200Z 00000KT 7000 -RA FEW013 SCT035 OVC250 26/24 Q1012 RERA NOSIG
Conditions at: WBKK (KOTA KINABALU IN, MY) observed 0200 UTC 23 January 2019
Temperature: 26.0°C (79°F)
Dewpoint: 24.0°C (75°F) [RH = 89%]
Pressure (altimeter): 29.88 inches Hg (1012.0 mb)
Winds: calm
Visibility: 4 miles ( 7 km)
Ceiling: 25000 feet AGL
Clouds: few clouds at 1300 feet AGL
scattered clouds at 3500 feet AGL
overcast cloud deck at 25000 feet AGL
Weather: -RA  (light rain)

METAR text: WBKK 230130Z 09004KT 050V140 3000 RA FEW013 SCT035 OVC250 25/24 Q1012 TEMPO 2000 +TSRA
Conditions at: WBKK (KOTA KINABALU IN, MY) observed 0130 UTC 23 January 2019
Temperature: 25.0°C (77°F)
Dewpoint: 24.0°C (75°F) [RH = 94%]
Pressure (altimeter): 29.88 inches Hg (1012.0 mb)
Winds: from the E (90 degrees) at 5 MPH (4 knots; 2.1 m/s)
Visibility: 1.86 miles (2.99 km)
Ceiling: 25000 feet AGL
Clouds: few clouds at 1300 feet AGL
scattered clouds at 3500 feet AGL
overcast cloud deck at 25000 feet AGL
Weather: RA  (moderate rain)

METAR text: WBKK 230100Z 00000KT 9000 -RA FEW013 SCT035 OVC250 25/24 Q1012 NOSIG
Conditions at: WBKK (KOTA KINABALU IN, MY) observed 0100 UTC 23 January 2019
Temperature: 25.0°C (77°F)
Dewpoint: 24.0°C (75°F) [RH = 94%]
Pressure (altimeter): 29.88 inches Hg (1012.0 mb)
Winds: calm
Visibility: 6 miles ( 9 km)
Ceiling: 25000 feet AGL
Clouds: few clouds at 1300 feet AGL
scattered clouds at 3500 feet AGL
overcast cloud deck at 25000 feet AGL
Weather: -RA  (light rain)

METAR text: WBKK 230030Z VRB02KT 9000 -RA FEW013 SCT035 OVC250 25/24 Q1012 NOSIG
Conditions at: WBKK (KOTA KINABALU IN, MY) observed 0030 UTC 23 January 2019
Temperature: 25.0°C (77°F)
Dewpoint: 24.0°C (75°F) [RH = 94%]
Pressure (altimeter): 29.88 inches Hg (1012.0 mb)
Winds: variable direction winds at 2 MPH (2 knots; 1.0 m/s)
Visibility: 6 miles ( 9 km)
Ceiling: 25000 feet AGL
Clouds: few clouds at 1300 feet AGL
scattered clouds at 3500 feet AGL
overcast cloud deck at 25000 feet AGL
Weather: -RA  (light rain)

METAR text: WBKK 230000Z 31003KT 250V010 9000 -RA FEW013 SCT035 OVC250 25/24 Q1011 NOSIG
Conditions at: WBKK (KOTA KINABALU IN, MY) observed 0000 UTC 23 January 2019
Temperature: 25.0°C (77°F)
Dewpoint: 24.0°C (75°F) [RH = 94%]
Pressure (altimeter): 29.85 inches Hg (1011.0 mb)
Winds: from the NW (310 degrees) at 3 MPH (3 knots; 1.5 m/s)
Visibility: 6 miles ( 9 km)
Ceiling: 25000 feet AGL
Clouds: few clouds at 1300 feet AGL
scattered clouds at 3500 feet AGL
overcast cloud deck at 25000 feet AGL
Weather: -RA  (light rain)

METAR text: WBKK 222330Z 11007KT 080V140 9000 -RA FEW013 SCT035 OVC260 25/24 Q1011 NOSIG
Conditions at: WBKK (KOTA KINABALU IN, MY) observed 2330 UTC 22 January 2019
Temperature: 25.0°C (77°F)
Dewpoint: 24.0°C (75°F) [RH = 94%]
Pressure (altimeter): 29.85 inches Hg (1011.0 mb)
Winds: from the ESE (110 degrees) at 8 MPH (7 knots; 3.6 m/s)
Visibility: 6 miles ( 9 km)
Ceiling: 26000 feet AGL
Clouds: few clouds at 1300 feet AGL
scattered clouds at 3500 feet AGL
overcast cloud deck at 26000 feet AGL
Weather: -RA  (light rain)

METAR text: WBKK 222300Z 10005KT 070V140 9000 -RA FEW013 SCT035 OVC260 25/24 Q1011 TEMPO 7000 -RA
Conditions at: WBKK (KOTA KINABALU IN, MY) observed 2300 UTC 22 January 2019
Temperature: 25.0°C (77°F)
Dewpoint: 24.0°C (75°F) [RH = 94%]
Pressure (altimeter): 29.85 inches Hg (1011.0 mb)
Winds: from the E (100 degrees) at 6 MPH (5 knots; 2.6 m/s)
Visibility: 6 miles ( 9 km)
Ceiling: 26000 feet AGL
Clouds: few clouds at 1300 feet AGL
scattered clouds at 3500 feet AGL
overcast cloud deck at 26000 feet AGL
Weather: -RA  (light rain)

METAR text: WBKK 222230Z 12005KT 090V150 9000 -RA FEW013 SCT035 OVC260 25/24 Q1010 NOSIG
Conditions at: WBKK (KOTA KINABALU IN, MY) observed 2230 UTC 22 January 2019
Temperature: 25.0°C (77°F)
Dewpoint: 24.0°C (75°F) [RH = 94%]
Pressure (altimeter): 29.82 inches Hg (1010.0 mb)
Winds: from the ESE (120 degrees) at 6 MPH (5 knots; 2.6 m/s)
Visibility: 6 miles ( 9 km)
Ceiling: 26000 feet AGL
Clouds: few clouds at 1300 feet AGL
scattered clouds at 3500 feet AGL
overcast cloud deck at 26000 feet AGL
Weather: -RA  (light rain)

METAR text: WBKK 222200Z 10006KT 070V140 8000 -RA FEW013 SCT035 OVC260 24/24 Q1010 NOSIG
Conditions at: WBKK (KOTA KINABALU IN, MY) observed 2200 UTC 22 January 2019
Temperature: 24.0°C (75°F)
Dewpoint: 24.0°C (75°F) [RH = 100%]
Pressure (altimeter): 29.82 inches Hg (1010.0 mb)
Winds: from the E (100 degrees) at 7 MPH (6 knots; 3.1 m/s)
Visibility: 5 miles ( 8 km)
Ceiling: 26000 feet AGL
Clouds: few clouds at 1300 feet AGL
scattered clouds at 3500 feet AGL
overcast cloud deck at 26000 feet AGL
Weather: -RA  (light rain)

METAR text: WBKK 222130Z 09005KT 060V130 8000 -RA FEW013 SCT035 OVC260 24/24 Q1010 TEMPO 5000 RA
Conditions at: WBKK (KOTA KINABALU IN, MY) observed 2130 UTC 22 January 2019
Temperature: 24.0°C (75°F)
Dewpoint: 24.0°C (75°F) [RH = 100%]
Pressure (altimeter): 29.82 inches Hg (1010.0 mb)
Winds: from the E (90 degrees) at 6 MPH (5 knots; 2.6 m/s)
Visibility: 5 miles ( 8 km)
Ceiling: 26000 feet AGL
Clouds: few clouds at 1300 feet AGL
scattered clouds at 3500 feet AGL
overcast cloud deck at 26000 feet AGL
Weather: -RA  (light rain)

METAR text: WBKK 222100Z 05009KT 010V070 9999 -RA FEW013 SCT035 OVC260 25/25 Q1010 RERA NOSIG
Conditions at: WBKK (KOTA KINABALU IN, MY) observed 2100 UTC 22 January 2019
Temperature: 25.0°C (77°F)
Dewpoint: 25.0°C (77°F) [RH = 100%]
Pressure (altimeter): 29.82 inches Hg (1010.0 mb)
Winds: from the NE (50 degrees) at 10 MPH (9 knots; 4.6 m/s)
Visibility: 6 or more miles (10+ km)
Ceiling: 26000 feet AGL
Clouds: few clouds at 1300 feet AGL
scattered clouds at 3500 feet AGL
overcast cloud deck at 26000 feet AGL
Weather: -RA  (light rain)

METAR text: WBKK 222030Z 03005KT 330V060 9999 -RA FEW013 SCT035 BKN260 25/24 Q1009 RERA NOSIG
Conditions at: WBKK (KOTA KINABALU IN, MY) observed 2030 UTC 22 January 2019
Temperature: 25.0°C (77°F)
Dewpoint: 24.0°C (75°F) [RH = 94%]
Pressure (altimeter): 29.79 inches Hg (1009.0 mb)
Winds: from the NNE (30 degrees) at 6 MPH (5 knots; 2.6 m/s)
Visibility: 6 or more miles (10+ km)
Ceiling: 26000 feet AGL
Clouds: few clouds at 1300 feet AGL
scattered clouds at 3500 feet AGL
broken clouds at 26000 feet AGL
Weather: -RA  (light rain)

METAR text: WBKK 222000Z 06005KT 9000 RA FEW013 SCT035 BKN260 25/24 Q1009 NOSIG
Conditions at: WBKK (KOTA KINABALU IN, MY) observed 2000 UTC 22 January 2019
Temperature: 25.0°C (77°F)
Dewpoint: 24.0°C (75°F) [RH = 94%]
Pressure (altimeter): 29.79 inches Hg (1009.0 mb)
Winds: from the ENE (60 degrees) at 6 MPH (5 knots; 2.6 m/s)
Visibility: 6 miles ( 9 km)
Ceiling: 26000 feet AGL
Clouds: few clouds at 1300 feet AGL
scattered clouds at 3500 feet AGL
broken clouds at 26000 feet AGL
Weather: RA  (moderate rain)

METAR text: WBKK 221930Z 03004KT 340V070 9999 -RA FEW013 SCT035 BKN260 25/24 Q1009 TEMPO 7000 -RA
Conditions at: WBKK (KOTA KINABALU IN, MY) observed 1930 UTC 22 January 2019
Temperature: 25.0°C (77°F)
Dewpoint: 24.0°C (75°F) [RH = 94%]
Pressure (altimeter): 29.79 inches Hg (1009.0 mb)
Winds: from the NNE (30 degrees) at 5 MPH (4 knots; 2.1 m/s)
Visibility: 6 or more miles (10+ km)
Ceiling: 26000 feet AGL
Clouds: few clouds at 1300 feet AGL
scattered clouds at 3500 feet AGL
broken clouds at 26000 feet AGL
Weather: -RA  (light rain)

METAR text: WBKK 221900Z 08003KT 050V110 9999 -RA FEW013 SCT035 BKN260 25/24 Q1009 TEMPO 7000 -RA
Conditions at: WBKK (KOTA KINABALU IN, MY) observed 1900 UTC 22 January 2019
Temperature: 25.0°C (77°F)
Dewpoint: 24.0°C (75°F) [RH = 94%]
Pressure (altimeter): 29.79 inches Hg (1009.0 mb)
Winds: from the E (80 degrees) at 3 MPH (3 knots; 1.5 m/s)
Visibility: 6 or more miles (10+ km)
Ceiling: 26000 feet AGL
Clouds: few clouds at 1300 feet AGL
scattered clouds at 3500 feet AGL
broken clouds at 26000 feet AGL
Weather: -RA  (light rain)

METAR text: WBKK 221830Z 06002KT 9999 -RA FEW013 SCT035 BKN270 25/24 Q1010 NOSIG
Conditions at: WBKK (KOTA KINABALU IN, MY) observed 1830 UTC 22 January 2019
Temperature: 25.0°C (77°F)
Dewpoint: 24.0°C (75°F) [RH = 94%]
Pressure (altimeter): 29.82 inches Hg (1010.0 mb)
Winds: from the ENE (60 degrees) at 2 MPH (2 knots; 1.0 m/s)
Visibility: 6 or more miles (10+ km)
Ceiling: 27000 feet AGL
Clouds: few clouds at 1300 feet AGL
scattered clouds at 3500 feet AGL
broken clouds at 27000 feet AGL
Weather: -RA  (light rain)

METAR text: WBKK 221800Z 14002KT 9999 FEW014 SCT140 BKN270 25/24 Q1010 NOSIG
Conditions at: WBKK (KOTA KINABALU IN, MY) observed 1800 UTC 22 January 2019
Temperature: 25.0°C (77°F)
Dewpoint: 24.0°C (75°F) [RH = 94%]
Pressure (altimeter): 29.82 inches Hg (1010.0 mb)
Winds: from the SE (140 degrees) at 2 MPH (2 knots; 1.0 m/s)
Visibility: 6 or more miles (10+ km)
Ceiling: 27000 feet AGL
Clouds: few clouds at 1400 feet AGL
scattered clouds at 14000 feet AGL
broken clouds at 27000 feet AGL
Weather: no significant weather observed at this time

METAR text: WBKK 221730Z 00000KT 9999 FEW014 SCT140 BKN270 25/24 Q1010 NOSIG
Conditions at: WBKK (KOTA KINABALU IN, MY) observed 1730 UTC 22 January 2019
Temperature: 25.0°C (77°F)
Dewpoint: 24.0°C (75°F) [RH = 94%]
Pressure (altimeter): 29.82 inches Hg (1010.0 mb)
Winds: calm
Visibility: 6 or more miles (10+ km)
Ceiling: 27000 feet AGL
Clouds: few clouds at 1400 feet AGL
scattered clouds at 14000 feet AGL
broken clouds at 27000 feet AGL
Weather: no significant weather observed at this time

METAR text: WBKK 221700Z 12003KT 9999 FEW014 SCT140 BKN270 25/24 Q1010 NOSIG
Conditions at: WBKK (KOTA KINABALU IN, MY) observed 1700 UTC 22 January 2019
Temperature: 25.0°C (77°F)
Dewpoint: 24.0°C (75°F) [RH = 94%]
Pressure (altimeter): 29.82 inches Hg (1010.0 mb)
Winds: from the ESE (120 degrees) at 3 MPH (3 knots; 1.5 m/s)
Visibility: 6 or more miles (10+ km)
Ceiling: 27000 feet AGL
Clouds: few clouds at 1400 feet AGL
scattered clouds at 14000 feet AGL
broken clouds at 27000 feet AGL
Weather: no significant weather observed at this time

METAR text: WBKK 221630Z VRB02KT 9999 FEW014 SCT140 BKN270 25/24 Q1011 NOSIG
Conditions at: WBKK (KOTA KINABALU IN, MY) observed 1630 UTC 22 January 2019
Temperature: 25.0°C (77°F)
Dewpoint: 24.0°C (75°F) [RH = 94%]
Pressure (altimeter): 29.85 inches Hg (1011.0 mb)
Winds: variable direction winds at 2 MPH (2 knots; 1.0 m/s)
Visibility: 6 or more miles (10+ km)
Ceiling: 27000 feet AGL
Clouds: few clouds at 1400 feet AGL
scattered clouds at 14000 feet AGL
broken clouds at 27000 feet AGL
Weather: no significant weather observed at this time

METAR text: WBKK 221600Z VRB02KT 9999 FEW014 SCT140 BKN270 26/24 Q1011 NOSIG
Conditions at: WBKK (KOTA KINABALU IN, MY) observed 1600 UTC 22 January 2019
Temperature: 26.0°C (79°F)
Dewpoint: 24.0°C (75°F) [RH = 89%]
Pressure (altimeter): 29.85 inches Hg (1011.0 mb)
Winds: variable direction winds at 2 MPH (2 knots; 1.0 m/s)
Visibility: 6 or more miles (10+ km)
Ceiling: 27000 feet AGL
Clouds: few clouds at 1400 feet AGL
scattered clouds at 14000 feet AGL
broken clouds at 27000 feet AGL
Weather: no significant weather observed at this time

METAR text: WBKK 221530Z VRB02KT 9999 FEW014 SCT140 BKN270 26/24 Q1011 NOSIG
Conditions at: WBKK (KOTA KINABALU IN, MY) observed 1530 UTC 22 January 2019
Temperature: 26.0°C (79°F)
Dewpoint: 24.0°C (75°F) [RH = 89%]
Pressure (altimeter): 29.85 inches Hg (1011.0 mb)
Winds: variable direction winds at 2 MPH (2 knots; 1.0 m/s)
Visibility: 6 or more miles (10+ km)
Ceiling: 27000 feet AGL
Clouds: few clouds at 1400 feet AGL
scattered clouds at 14000 feet AGL
broken clouds at 27000 feet AGL
Weather: no significant weather observed at this time

METAR text: WBKK 221500Z VRB02KT 9999 FEW014 SCT140 BKN270 26/25 Q1011 NOSIG
Conditions at: WBKK (KOTA KINABALU IN, MY) observed 1500 UTC 22 January 2019
Temperature: 26.0°C (79°F)
Dewpoint: 25.0°C (77°F) [RH = 94%]
Pressure (altimeter): 29.85 inches Hg (1011.0 mb)
Winds: variable direction winds at 2 MPH (2 knots; 1.0 m/s)
Visibility: 6 or more miles (10+ km)
Ceiling: 27000 feet AGL
Clouds: few clouds at 1400 feet AGL
scattered clouds at 14000 feet AGL
broken clouds at 27000 feet AGL
Weather: no significant weather observed at this time

METAR text: WBKK 221430Z 12003KT 9999 FEW014 SCT140 BKN270 26/25 Q1011 NOSIG
Conditions at: WBKK (KOTA KINABALU IN, MY) observed 1430 UTC 22 January 2019
Temperature: 26.0°C (79°F)
Dewpoint: 25.0°C (77°F) [RH = 94%]
Pressure (altimeter): 29.85 inches Hg (1011.0 mb)
Winds: from the ESE (120 degrees) at 3 MPH (3 knots; 1.5 m/s)
Visibility: 6 or more miles (10+ km)
Ceiling: 27000 feet AGL
Clouds: few clouds at 1400 feet AGL
scattered clouds at 14000 feet AGL
broken clouds at 27000 feet AGL
Weather: no significant weather observed at this time

METAR text: WBKK 221400Z VRB02KT 9999 FEW014 SCT040 BKN270 26/25 Q1011 NOSIG
Conditions at: WBKK (KOTA KINABALU IN, MY) observed 1400 UTC 22 January 2019
Temperature: 26.0°C (79°F)
Dewpoint: 25.0°C (77°F) [RH = 94%]
Pressure (altimeter): 29.85 inches Hg (1011.0 mb)
Winds: variable direction winds at 2 MPH (2 knots; 1.0 m/s)
Visibility: 6 or more miles (10+ km)
Ceiling: 27000 feet AGL
Clouds: few clouds at 1400 feet AGL
scattered clouds at 4000 feet AGL
broken clouds at 27000 feet AGL
Weather: no significant weather observed at this time

METAR text: WBKK 221330Z VRB02KT 8000 -RA FEW013 SCT035 BKN260 26/25 Q1011 TEMPO 9000 -RA
Conditions at: WBKK (KOTA KINABALU IN, MY) observed 1330 UTC 22 January 2019
Temperature: 26.0°C (79°F)
Dewpoint: 25.0°C (77°F) [RH = 94%]
Pressure (altimeter): 29.85 inches Hg (1011.0 mb)
Winds: variable direction winds at 2 MPH (2 knots; 1.0 m/s)
Visibility: 5 miles ( 8 km)
Ceiling: 26000 feet AGL
Clouds: few clouds at 1300 feet AGL
scattered clouds at 3500 feet AGL
broken clouds at 26000 feet AGL
Weather: -RA  (light rain)

METAR text: WBKK 221300Z 04006KT 360V070 7000 -RA FEW013 FEW016CB SCT035 OVC260 26/24 Q1010 TEMPO 7000 RA
Conditions at: WBKK (KOTA KINABALU IN, MY) observed 1300 UTC 22 January 2019
Temperature: 26.0°C (79°F)
Dewpoint: 24.0°C (75°F) [RH = 89%]
Pressure (altimeter): 29.82 inches Hg (1010.0 mb)
Winds: from the NE (40 degrees) at 7 MPH (6 knots; 3.1 m/s)
Visibility: 4 miles ( 7 km)
Ceiling: 26000 feet AGL
Clouds: few clouds at 1300 feet AGL
few clouds at 1600 feet AGL
scattered clouds at 3500 feet AGL
overcast cloud deck at 26000 feet AGL
Weather: -RA  (light rain)

METAR text: WBKK 221230Z 04008KT 350V070 8000 -RA FEW013 FEW016CB SCT035 BKN260 26/24 Q1010 TEMPO 7000 RA
Conditions at: WBKK (KOTA KINABALU IN, MY) observed 1230 UTC 22 January 2019
Temperature: 26.0°C (79°F)
Dewpoint: 24.0°C (75°F) [RH = 89%]
Pressure (altimeter): 29.82 inches Hg (1010.0 mb)
Winds: from the NE (40 degrees) at 9 MPH (8 knots; 4.1 m/s)
Visibility: 5 miles ( 8 km)
Ceiling: 26000 feet AGL
Clouds: few clouds at 1300 feet AGL
few clouds at 1600 feet AGL
scattered clouds at 3500 feet AGL
broken clouds at 26000 feet AGL
Weather: -RA  (light rain)

METAR text: WBKK 221200Z 03006KT 330V070 8000 -RA FEW013 FEW016CB SCT040 BKN270 27/24 Q1010 TEMPO 7000 RA
Conditions at: WBKK (KOTA KINABALU IN, MY) observed 1200 UTC 22 January 2019
Temperature: 27.0°C (81°F)
Dewpoint: 24.0°C (75°F) [RH = 84%]
Pressure (altimeter): 29.82 inches Hg (1010.0 mb)
Winds: from the NNE (30 degrees) at 7 MPH (6 knots; 3.1 m/s)
Visibility: 5 miles ( 8 km)
Ceiling: 27000 feet AGL
Clouds: few clouds at 1300 feet AGL
few clouds at 1600 feet AGL
scattered clouds at 4000 feet AGL
broken clouds at 27000 feet AGL
Weather: -RA  (light rain)

METAR text: WBKK 221130Z 03007KT 350V070 9999 FEW014 FEW016CB SCT140 BKN270 28/25 Q1009 NOSIG
Conditions at: WBKK (KOTA KINABALU IN, MY) observed 1130 UTC 22 January 2019
Temperature: 28.0°C (82°F)
Dewpoint: 25.0°C (77°F) [RH = 84%]
Pressure (altimeter): 29.79 inches Hg (1009.0 mb)
Winds: from the NNE (30 degrees) at 8 MPH (7 knots; 3.6 m/s)
Visibility: 6 or more miles (10+ km)
Ceiling: 27000 feet AGL
Clouds: few clouds at 1400 feet AGL
few clouds at 1600 feet AGL
scattered clouds at 14000 feet AGL
broken clouds at 27000 feet AGL
Weather: no significant weather observed at this time

METAR text: WBKK 221100Z 02006KT 330V080 9999 FEW014 FEW016CB SCT140 BKN270 28/25 Q1009 NOSIG
Conditions at: WBKK (KOTA KINABALU IN, MY) observed 1100 UTC 22 January 2019
Temperature: 28.0°C (82°F)
Dewpoint: 25.0°C (77°F) [RH = 84%]
Pressure (altimeter): 29.79 inches Hg (1009.0 mb)
Winds: from the NNE (20 degrees) at 7 MPH (6 knots; 3.1 m/s)
Visibility: 6 or more miles (10+ km)
Ceiling: 27000 feet AGL
Clouds: few clouds at 1400 feet AGL
few clouds at 1600 feet AGL
scattered clouds at 14000 feet AGL
broken clouds at 27000 feet AGL
Weather: no significant weather observed at this time

METAR text: WBKK 221030Z 03006KT 330V080 9999 FEW014 FEW016CB SCT140 BKN270 28/25 Q1009 NOSIG
Conditions at: WBKK (KOTA KINABALU IN, MY) observed 1030 UTC 22 January 2019
Temperature: 28.0°C (82°F)
Dewpoint: 25.0°C (77°F) [RH = 84%]
Pressure (altimeter): 29.79 inches Hg (1009.0 mb)
Winds: from the NNE (30 degrees) at 7 MPH (6 knots; 3.1 m/s)
Visibility: 6 or more miles (10+ km)
Ceiling: 27000 feet AGL
Clouds: few clouds at 1400 feet AGL
few clouds at 1600 feet AGL
scattered clouds at 14000 feet AGL
broken clouds at 27000 feet AGL
Weather: no significant weather observed at this time

METAR text: WBKK 221000Z 01003KT 300V070 9999 FEW014 FEW016CB SCT140 BKN270 28/25 Q1009 NOSIG
Conditions at: WBKK (KOTA KINABALU IN, MY) observed 1000 UTC 22 January 2019
Temperature: 28.0°C (82°F)
Dewpoint: 25.0°C (77°F) [RH = 84%]
Pressure (altimeter): 29.79 inches Hg (1009.0 mb)
Winds: from the N (10 degrees) at 3 MPH (3 knots; 1.5 m/s)
Visibility: 6 or more miles (10+ km)
Ceiling: 27000 feet AGL
Clouds: few clouds at 1400 feet AGL
few clouds at 1600 feet AGL
scattered clouds at 14000 feet AGL
broken clouds at 27000 feet AGL
Weather: no significant weather observed at this time

METAR text: WBKK 220930Z 01003KT 280V080 9999 FEW014 SCT040 BKN270 29/25 Q1009 NOSIG
Conditions at: WBKK (KOTA KINABALU IN, MY) observed 0930 UTC 22 January 2019
Temperature: 29.0°C (84°F)
Dewpoint: 25.0°C (77°F) [RH = 79%]
Pressure (altimeter): 29.79 inches Hg (1009.0 mb)
Winds: from the N (10 degrees) at 3 MPH (3 knots; 1.5 m/s)
Visibility: 6 or more miles (10+ km)
Ceiling: 27000 feet AGL
Clouds: few clouds at 1400 feet AGL
scattered clouds at 4000 feet AGL
broken clouds at 27000 feet AGL
Weather: no significant weather observed at this time

METAR text: WBKK 220900Z 01005KT 290V070 9999 FEW014 SCT040 BKN270 29/25 Q1009 NOSIG
Conditions at: WBKK (KOTA KINABALU IN, MY) observed 0900 UTC 22 January 2019
Temperature: 29.0°C (84°F)
Dewpoint: 25.0°C (77°F) [RH = 79%]
Pressure (altimeter): 29.79 inches Hg (1009.0 mb)
Winds: from the N (10 degrees) at 6 MPH (5 knots; 2.6 m/s)
Visibility: 6 or more miles (10+ km)
Ceiling: 27000 feet AGL
Clouds: few clouds at 1400 feet AGL
scattered clouds at 4000 feet AGL
broken clouds at 27000 feet AGL
Weather: no significant weather observed at this time

METAR text: WBKK 220830Z 36005KT 320V060 9999 FEW014 FEW017CB SCT040 BKN270 29/25 Q1009 NOSIG
Conditions at: WBKK (KOTA KINABALU IN, MY) observed 0830 UTC 22 January 2019
Temperature: 29.0°C (84°F)
Dewpoint: 25.0°C (77°F) [RH = 79%]
Pressure (altimeter): 29.79 inches Hg (1009.0 mb)
Winds: from the N (360 degrees) at 6 MPH (5 knots; 2.6 m/s)
Visibility: 6 or more miles (10+ km)
Ceiling: 27000 feet AGL
Clouds: few clouds at 1400 feet AGL
few clouds at 1700 feet AGL
scattered clouds at 4000 feet AGL
broken clouds at 27000 feet AGL
Weather: no significant weather observed at this time

METAR text: WBKK 220800Z VRB05KT 9999 FEW014 FEW016CB SCT040 BKN270 30/25 Q1009 NOSIG
Conditions at: WBKK (KOTA KINABALU IN, MY) observed 0800 UTC 22 January 2019
Temperature: 30.0°C (86°F)
Dewpoint: 25.0°C (77°F) [RH = 75%]
Pressure (altimeter): 29.79 inches Hg (1009.0 mb)
Winds: variable direction winds at 6 MPH (5 knots; 2.6 m/s)
Visibility: 6 or more miles (10+ km)
Ceiling: 27000 feet AGL
Clouds: few clouds at 1400 feet AGL
few clouds at 1600 feet AGL
scattered clouds at 4000 feet AGL
broken clouds at 27000 feet AGL
Weather: no significant weather observed at this time

METAR text: WBKK 220730Z 36005KT 280V090 9999 FEW014 SCT040 BKN270 30/25 Q1009 NOSIG
Conditions at: WBKK (KOTA KINABALU IN, MY) observed 0730 UTC 22 January 2019
Temperature: 30.0°C (86°F)
Dewpoint: 25.0°C (77°F) [RH = 75%]
Pressure (altimeter): 29.79 inches Hg (1009.0 mb)
Winds: from the N (360 degrees) at 6 MPH (5 knots; 2.6 m/s)
Visibility: 6 or more miles (10+ km)
Ceiling: 27000 feet AGL
Clouds: few clouds at 1400 feet AGL
scattered clouds at 4000 feet AGL
broken clouds at 27000 feet AGL
Weather: no significant weather observed at this time

METAR text: WBKK 220700Z 01004KT 270V070 9999 FEW014 SCT040 BKN270 30/25 Q1009 NOSIG
Conditions at: WBKK (KOTA KINABALU IN, MY) observed 0700 UTC 22 January 2019
Temperature: 30.0°C (86°F)
Dewpoint: 25.0°C (77°F) [RH = 75%]
Pressure (altimeter): 29.79 inches Hg (1009.0 mb)
Winds: from the N (10 degrees) at 5 MPH (4 knots; 2.1 m/s)
Visibility: 6 or more miles (10+ km)
Ceiling: 27000 feet AGL
Clouds: few clouds at 1400 feet AGL
scattered clouds at 4000 feet AGL
broken clouds at 27000 feet AGL
Weather: no significant weather observed at this time

METAR text: WBKK 220630Z 36006KT 310V060 9999 FEW014 SCT040 BKN270 30/24 Q1009 NOSIG
Conditions at: WBKK (KOTA KINABALU IN, MY) observed 0630 UTC 22 January 2019
Temperature: 30.0°C (86°F)
Dewpoint: 24.0°C (75°F) [RH = 70%]
Pressure (altimeter): 29.79 inches Hg (1009.0 mb)
Winds: from the N (360 degrees) at 7 MPH (6 knots; 3.1 m/s)
Visibility: 6 or more miles (10+ km)
Ceiling: 27000 feet AGL
Clouds: few clouds at 1400 feet AGL
scattered clouds at 4000 feet AGL
broken clouds at 27000 feet AGL
Weather: no significant weather observed at this time

METAR text: WBKK 220600Z 36005KT 290V060 9999 FEW014 SCT040 BKN270 30/24 Q1009 NOSIG
Conditions at: WBKK (KOTA KINABALU IN, MY) observed 0600 UTC 22 January 2019
Temperature: 30.0°C (86°F)
Dewpoint: 24.0°C (75°F) [RH = 70%]
Pressure (altimeter): 29.79 inches Hg (1009.0 mb)
Winds: from the N (360 degrees) at 6 MPH (5 knots; 2.6 m/s)
Visibility: 6 or more miles (10+ km)
Ceiling: 27000 feet AGL
Clouds: few clouds at 1400 feet AGL
scattered clouds at 4000 feet AGL
broken clouds at 27000 feet AGL
Weather: no significant weather observed at this time

METAR text: WBKK 220530Z 29004KT 220V350 9999 FEW014 SCT140 BKN270 30/25 Q1010 NOSIG
Conditions at: WBKK (KOTA KINABALU IN, MY) observed 0530 UTC 22 January 2019
Temperature: 30.0°C (86°F)
Dewpoint: 25.0°C (77°F) [RH = 75%]
Pressure (altimeter): 29.82 inches Hg (1010.0 mb)
Winds: from the WNW (290 degrees) at 5 MPH (4 knots; 2.1 m/s)
Visibility: 6 or more miles (10+ km)
Ceiling: 27000 feet AGL
Clouds: few clouds at 1400 feet AGL
scattered clouds at 14000 feet AGL
broken clouds at 27000 feet AGL
Weather: no significant weather observed at this time

METAR text: WBKK 220500Z 29003KT 230V350 9999 FEW014 SCT140 BKN270 30/25 Q1010 NOSIG
Conditions at: WBKK (KOTA KINABALU IN, MY) observed 0500 UTC 22 January 2019
Temperature: 30.0°C (86°F)
Dewpoint: 25.0°C (77°F) [RH = 75%]
Pressure (altimeter): 29.82 inches Hg (1010.0 mb)
Winds: from the WNW (290 degrees) at 3 MPH (3 knots; 1.5 m/s)
Visibility: 6 or more miles (10+ km)
Ceiling: 27000 feet AGL
Clouds: few clouds at 1400 feet AGL
scattered clouds at 14000 feet AGL
broken clouds at 27000 feet AGL
Weather: no significant weather observed at this time

METAR text: WBKK 220430Z 26003KT 200V300 9999 FEW014 SCT140 BKN270 29/25 Q1010 NOSIG
Conditions at: WBKK (KOTA KINABALU IN, MY) observed 0430 UTC 22 January 2019
Temperature: 29.0°C (84°F)
Dewpoint: 25.0°C (77°F) [RH = 79%]
Pressure (altimeter): 29.82 inches Hg (1010.0 mb)
Winds: from the W (260 degrees) at 3 MPH (3 knots; 1.5 m/s)
Visibility: 6 or more miles (10+ km)
Ceiling: 27000 feet AGL
Clouds: few clouds at 1400 feet AGL
scattered clouds at 14000 feet AGL
broken clouds at 27000 feet AGL
Weather: no significant weather observed at this time

METAR text: WBKK 220400Z 27006KT 230V310 9999 FEW014 SCT140 BKN270 30/25 Q1011 NOSIG
Conditions at: WBKK (KOTA KINABALU IN, MY) observed 0400 UTC 22 January 2019
Temperature: 30.0°C (86°F)
Dewpoint: 25.0°C (77°F) [RH = 75%]
Pressure (altimeter): 29.85 inches Hg (1011.0 mb)
Winds: from the W (270 degrees) at 7 MPH (6 knots; 3.1 m/s)
Visibility: 6 or more miles (10+ km)
Ceiling: 27000 feet AGL
Clouds: few clouds at 1400 feet AGL
scattered clouds at 14000 feet AGL
broken clouds at 27000 feet AGL
Weather: no significant weather observed at this time

METAR text: WBKK 220330Z 26007KT 200V300 9999 FEW014 SCT040 BKN270 29/25 Q1011 NOSIG
Conditions at: WBKK (KOTA KINABALU IN, MY) observed 0330 UTC 22 January 2019
Temperature: 29.0°C (84°F)
Dewpoint: 25.0°C (77°F) [RH = 79%]
Pressure (altimeter): 29.85 inches Hg (1011.0 mb)
Winds: from the W (260 degrees) at 8 MPH (7 knots; 3.6 m/s)
Visibility: 6 or more miles (10+ km)
Ceiling: 27000 feet AGL
Clouds: few clouds at 1400 feet AGL
scattered clouds at 4000 feet AGL
broken clouds at 27000 feet AGL
Weather: no significant weather observed at this time

METAR text: WBKK 220300Z 26007KT 200V290 9999 FEW014 SCT040 BKN270 29/24 Q1011 NOSIG
Conditions at: WBKK (KOTA KINABALU IN, MY) observed 0300 UTC 22 January 2019
Temperature: 29.0°C (84°F)
Dewpoint: 24.0°C (75°F) [RH = 74%]
Pressure (altimeter): 29.85 inches Hg (1011.0 mb)
Winds: from the W (260 degrees) at 8 MPH (7 knots; 3.6 m/s)
Visibility: 6 or more miles (10+ km)
Ceiling: 27000 feet AGL
Clouds: few clouds at 1400 feet AGL
scattered clouds at 4000 feet AGL
broken clouds at 27000 feet AGL
Weather: no significant weather observed at this time

Forecast for: WBKK (KOTA KINABALU IN, MY)
Text: TAF WBKK 231100Z 2312/2412 11005KT 9999 FEW014
Forecast period: 1200 UTC 23 January 2019 to 1200 UTC 24 January 2019
Forecast type: FROM: standard forecast or significant change
Winds: from the ESE (110 degrees) at 6 MPH (5 knots; 2.6 m/s)
Visibility: 6 or more miles 10+ km)
Ceiling: at least 12,000 feet AGL
Clouds: few clouds at 1400 feet AGL
Weather: no significant weather forecast for this period
Text: TEMPO 2312/2315 5000 RA FEW013 FEW016CB SCT030
Forecast period: 1200 to 1500 UTC 23 January 2019
Forecast type: TEMPORARY: The following changes expected for less than half the time period
Visibility: 3 miles (5 km)
Ceiling: at least 12,000 feet AGL
Clouds: few clouds at 1300 feet AGL
few clouds at 1600 feet AGL
scattered clouds at 3000 feet AGL
Weather: RA  (moderate rain)